createdAt,value
2018-05-11T00:00:16.081Z,100261.06
2018-05-11T00:02:43.625Z,100261.56
2018-05-11T00:05:11.188Z,100267.34
2018-05-11T00:07:38.716Z,100267.37
2018-05-11T00:10:06.247Z,100267.02
2018-05-11T00:12:33.765Z,100268.36
2018-05-11T00:15:01.301Z,100259.30
2018-05-11T00:17:28.828Z,100272.90
2018-05-11T00:19:56.370Z,100269.02
2018-05-11T00:22:23.887Z,100269.05
2018-05-11T00:24:51.487Z,100272.19
2018-05-11T00:27:19.019Z,100271.84
2018-05-11T00:29:46.592Z,100278.95
2018-05-11T00:32:14.157Z,100279.47
2018-05-11T00:34:41.705Z,100278.22
2018-05-11T00:37:09.245Z,100277.87
2018-05-11T00:39:36.788Z,100275.68
2018-05-11T00:42:04.338Z,100282.33
2018-05-11T00:44:31.904Z,100275.38
2018-05-11T00:46:59.454Z,100274.08
2018-05-11T00:49:27.003Z,100274.58
2018-05-11T00:51:54.554Z,100274.22
2018-05-11T00:54:22.107Z,100281.73
2018-05-11T00:56:49.653Z,100281.87
2018-05-11T00:59:17.209Z,100288.14
2018-05-11T01:01:44.775Z,100284.73
2018-05-11T01:04:12.327Z,100287.86
2018-05-11T01:06:39.873Z,100278.25
2018-05-11T01:09:07.526Z,100285.73
2018-05-11T01:11:35.106Z,100281.41
2018-05-11T01:14:02.700Z,100288.44
2018-05-11T01:16:30.269Z,100284.53
2018-05-11T01:18:57.845Z,100275.45
2018-05-11T01:21:25.437Z,100285.04
2018-05-11T01:23:52.996Z,100285.09
2018-05-11T01:26:20.571Z,100288.63
2018-05-11T01:28:49.182Z,100290.86
2018-05-11T01:31:16.769Z,100281.66
2018-05-11T01:33:44.326Z,100280.41
2018-05-11T01:36:11.915Z,100283.52
2018-05-11T01:38:39.447Z,100285.78
2018-05-11T01:41:07.669Z,100289.31
2018-05-11T01:43:35.238Z,100285.38
2018-05-11T01:46:02.807Z,100289.83
2018-05-11T01:48:30.343Z,100287.67
2018-05-11T01:50:57.902Z,100279.34
2018-05-11T01:53:25.567Z,100279.70
2018-05-11T01:55:53.075Z,100279.16
2018-05-11T01:58:20.637Z,100290.92
2018-05-11T02:00:48.251Z,100287.80
2018-05-11T02:03:15.806Z,100294.25
2018-05-11T02:05:43.375Z,100295.92
2018-05-11T02:08:10.954Z,100291.05
2018-05-11T02:10:38.543Z,100293.22
2018-05-11T02:13:06.098Z,100295.85
2018-05-11T02:15:33.673Z,100293.20
2018-05-11T02:18:01.241Z,100284.90
2018-05-11T02:20:28.841Z,100292.81
2018-05-11T02:22:56.397Z,100287.13
2018-05-11T02:25:23.964Z,100283.30
2018-05-11T02:27:51.509Z,100285.99
2018-05-11T02:30:19.074Z,100276.84
2018-05-11T02:32:46.640Z,100277.36
2018-05-11T02:35:14.292Z,100275.25
2018-05-11T02:37:41.857Z,100272.70
2018-05-11T02:40:09.419Z,100276.28
2018-05-11T02:42:37.002Z,100279.36
2018-05-11T02:45:04.597Z,100275.05
2018-05-11T02:47:32.168Z,100278.17
2018-05-11T02:49:59.737Z,100279.95
2018-05-11T02:52:27.293Z,100280.43
2018-05-11T02:54:54.848Z,100276.06
2018-05-11T02:57:22.418Z,100279.17
2018-05-11T02:59:49.960Z,100279.19
2018-05-11T03:02:18.934Z,100283.16
2018-05-11T03:04:46.516Z,100278.84
2018-05-11T03:07:14.069Z,100277.55
2018-05-11T03:09:41.646Z,100279.39
2018-05-11T03:12:09.303Z,100282.50
2018-05-11T03:14:36.784Z,100283.81
2018-05-11T03:17:04.343Z,100284.25
2018-05-11T03:19:31.914Z,100286.03
2018-05-11T03:21:59.478Z,100284.72
2018-05-11T03:24:27.007Z,100282.66
2018-05-11T03:26:54.589Z,100281.78
2018-05-11T03:29:22.121Z,100290.61
2018-05-11T03:31:49.711Z,100284.98
2018-05-11T03:34:17.234Z,100295.55
2018-05-11T03:36:44.839Z,100293.36
2018-05-11T03:39:12.445Z,100295.61
2018-05-11T03:41:40.031Z,100298.25
2018-05-11T03:44:07.577Z,100294.81
2018-05-11T03:46:35.132Z,100293.97
2018-05-11T03:49:02.686Z,100298.39
2018-05-11T03:51:30.245Z,100300.17
2018-05-11T03:53:57.876Z,100300.64
2018-05-11T03:56:25.485Z,100299.80
2018-05-11T03:58:53.038Z,100295.86
2018-05-11T04:01:32.127Z,100298.57
2018-05-11T04:04:11.488Z,100291.63
2018-05-11T04:06:51.657Z,100305.61
2018-05-11T04:09:19.185Z,100303.45
2018-05-11T04:11:46.753Z,100308.70
2018-05-11T04:14:14.347Z,100310.87
2018-05-11T04:16:41.898Z,100309.09
2018-05-11T04:19:09.449Z,100313.03
2018-05-11T04:21:37.018Z,100309.05
2018-05-11T04:24:04.579Z,100314.26
2018-05-11T04:26:32.125Z,100321.21
2018-05-11T04:28:59.719Z,100321.20
2018-05-11T04:31:27.284Z,100318.53
2018-05-11T04:33:54.956Z,100319.80
2018-05-11T04:36:22.488Z,100316.33
2018-05-11T04:38:50.085Z,100312.39
2018-05-11T04:41:17.624Z,100314.59
2018-05-11T04:43:45.184Z,100316.32
2018-05-11T04:46:12.735Z,100324.58
2018-05-11T04:48:40.285Z,100326.70
2018-05-11T04:51:07.833Z,100342.44
2018-05-11T04:53:35.427Z,100326.66
2018-05-11T04:56:02.980Z,100330.50
2018-05-11T04:58:30.534Z,100328.71
2018-05-11T05:00:58.064Z,100333.97
2018-05-11T05:03:25.629Z,100332.66
2018-05-11T05:05:53.165Z,100329.19
2018-05-11T05:08:20.751Z,100330.91
2018-05-11T05:10:48.316Z,100335.70
2018-05-11T05:13:18.003Z,100335.19
2018-05-11T05:15:45.569Z,100330.33
2018-05-11T05:18:13.159Z,100335.44
2018-05-11T05:20:41.426Z,100332.28
2018-05-11T05:23:09.010Z,100332.25
2018-05-11T05:25:36.578Z,100332.60
2018-05-11T05:28:04.155Z,100333.81
2018-05-11T05:30:31.753Z,100334.58
2018-05-11T05:32:59.444Z,100337.92
2018-05-11T05:35:27.045Z,100338.21
2018-05-11T05:37:54.640Z,100334.95
2018-05-11T05:40:22.225Z,100333.98
2018-05-11T05:42:49.797Z,100336.81
2018-05-11T05:45:17.477Z,100337.89
2018-05-11T05:47:45.415Z,100331.24
2018-05-11T05:50:12.983Z,100338.02
2018-05-11T05:52:40.548Z,100335.23
2018-05-11T05:55:08.151Z,100331.96
2018-05-11T05:57:35.801Z,100337.96
2018-05-11T06:00:03.421Z,100335.90
2018-05-11T06:02:31.689Z,100326.06
2018-05-11T06:04:59.353Z,100303.56
2018-05-11T06:07:26.964Z,100334.63
2018-05-11T06:09:54.632Z,100341.18
2018-05-11T06:12:22.307Z,100343.34
2018-05-11T06:14:49.922Z,100356.75
2018-05-11T06:17:17.735Z,100334.52
2018-05-11T06:19:45.342Z,100341.52
2018-05-11T06:22:12.925Z,100335.98
2018-05-11T06:24:40.507Z,100342.27
2018-05-11T06:27:08.243Z,100345.20
2018-05-11T06:29:35.879Z,100336.13
2018-05-11T06:32:04.092Z,100339.05
2018-05-11T06:34:31.770Z,100337.11
2018-05-11T06:36:59.385Z,100332.69
2018-05-11T06:39:27.016Z,100339.70
2018-05-11T06:41:54.556Z,100333.88
2018-05-11T06:44:22.145Z,100326.33
2018-05-11T06:46:49.690Z,100328.55
2018-05-11T06:49:17.310Z,100328.14
2018-05-11T06:51:44.863Z,100320.61
2018-05-11T06:54:12.418Z,100322.39
2018-05-11T06:56:39.981Z,100319.31
2018-05-11T06:59:07.533Z,100308.70
2018-05-11T07:01:35.237Z,100317.00
2018-05-11T07:04:02.835Z,100301.63
2018-05-11T07:06:30.416Z,100316.42
2018-05-11T07:08:58.448Z,100312.72
2018-05-11T07:11:26.029Z,100304.14
2018-05-11T07:13:53.607Z,100300.43
2018-05-11T07:16:21.220Z,100299.41
2018-05-11T07:18:48.895Z,100294.05
2018-05-11T07:21:16.594Z,100288.45
2018-05-11T07:23:44.336Z,100289.61
2018-05-11T07:26:11.969Z,100291.78
2018-05-11T07:28:39.532Z,100292.12
2018-05-11T07:31:07.162Z,100284.59
2018-05-11T07:33:34.729Z,100287.04
2018-05-11T07:36:02.304Z,100287.61
2018-05-11T07:38:29.852Z,100288.98
2018-05-11T07:40:57.452Z,100292.55
2018-05-11T07:43:25.151Z,100297.22
2018-05-11T07:45:52.626Z,100287.00
2018-05-11T07:48:20.247Z,100287.84
2018-05-11T07:50:47.805Z,100286.03
2018-05-11T07:53:15.369Z,100287.52
2018-05-11T07:55:42.925Z,100270.09
2018-05-11T07:58:10.455Z,100285.83
2018-05-11T08:00:37.992Z,100285.11
2018-05-11T08:03:05.537Z,100284.70
2018-05-11T08:05:33.128Z,100286.09
2018-05-11T08:08:00.717Z,100287.38
2018-05-11T08:10:28.339Z,100282.91
2018-05-11T08:12:55.929Z,100272.81
2018-05-11T08:15:23.488Z,100274.91
2018-05-11T08:17:51.945Z,100277.33
2018-05-11T08:20:19.497Z,100275.27
2018-05-11T08:22:47.085Z,100270.22
2018-05-11T08:25:14.647Z,100274.39
2018-05-11T08:27:42.269Z,100266.31
2018-05-11T08:30:09.834Z,100269.02
2018-05-11T08:32:37.436Z,100267.46
2018-05-11T08:35:05.038Z,100262.71
2018-05-11T08:37:32.621Z,100262.62
2018-05-11T08:40:00.264Z,100261.88
2018-05-11T08:42:27.876Z,100257.37
2018-05-11T08:44:55.435Z,100255.69
2018-05-11T08:47:23.097Z,100255.41
2018-05-11T08:49:50.672Z,100252.53
2018-05-11T08:52:18.260Z,100256.97
2018-05-11T08:54:45.832Z,100249.91
2018-05-11T08:57:13.463Z,100248.75
2018-05-11T08:59:41.108Z,100240.44
2018-05-11T09:02:08.771Z,100233.20
2018-05-11T09:04:36.463Z,100235.66
2018-05-11T09:07:04.043Z,100232.30
2018-05-11T09:09:31.613Z,100236.17
2018-05-11T09:11:59.238Z,100236.23
2018-05-11T09:14:26.807Z,100228.37
2018-05-11T09:16:54.427Z,100228.06
2018-05-11T09:19:22.519Z,100227.70
2018-05-11T09:21:50.117Z,100226.33
2018-05-11T09:24:17.727Z,100217.44
2018-05-11T09:26:45.321Z,100219.44
2018-05-11T09:29:12.957Z,100218.05
2018-05-11T09:31:40.596Z,100209.26
2018-05-11T09:34:08.140Z,100203.73
2018-05-11T09:36:35.771Z,100206.11
2018-05-11T09:39:03.318Z,100207.92
2018-05-11T09:41:30.905Z,100206.31
2018-05-11T09:43:58.651Z,100204.34
2018-05-11T09:46:26.207Z,100202.75
2018-05-11T09:48:53.756Z,100197.67
2018-05-11T09:51:21.373Z,100201.09
2018-05-11T09:53:48.977Z,100197.27
2018-05-11T09:56:16.537Z,100195.95
2018-05-11T09:58:44.096Z,100193.42
2018-05-11T10:01:11.701Z,100192.92
2018-05-11T10:03:39.341Z,100201.12
2018-05-11T10:06:07.104Z,100198.06
2018-05-11T10:08:35.913Z,100197.14
2018-05-11T10:11:03.481Z,100195.94
2018-05-11T10:13:31.062Z,100205.93
2018-05-11T10:15:58.713Z,100190.30
2018-05-11T10:18:26.306Z,100185.69
2018-05-11T10:20:53.935Z,100186.22
2018-05-11T10:23:21.453Z,100177.53
2018-05-11T10:25:49.046Z,100173.97
2018-05-11T10:28:16.670Z,100174.45
2018-05-11T10:30:44.293Z,100180.28
2018-05-11T10:33:11.895Z,100171.31
2018-05-11T10:35:39.542Z,100178.11
2018-05-11T10:38:07.174Z,100176.98
2018-05-11T10:40:34.745Z,100175.25
2018-05-11T10:43:02.983Z,100164.18
2018-05-11T10:45:30.619Z,100165.38
2018-05-11T10:47:58.284Z,100155.27
2018-05-11T10:50:25.850Z,100159.01
2018-05-11T10:52:53.501Z,100166.50
2018-05-11T10:55:21.087Z,100164.44
2018-05-11T10:57:48.661Z,100160.34
2018-05-11T11:00:16.236Z,100158.33
2018-05-11T11:02:43.899Z,100150.19
2018-05-11T11:05:11.478Z,100150.07
2018-05-11T11:07:39.058Z,100142.09
2018-05-11T11:10:06.631Z,100142.24
2018-05-11T11:12:34.234Z,100140.94
2018-05-11T11:15:01.839Z,100120.00
2018-05-11T11:17:29.398Z,100128.34
2018-05-11T11:19:57.044Z,100120.36
2018-05-11T11:22:24.629Z,100127.50
2018-05-11T11:24:52.734Z,100127.97
2018-05-11T11:27:20.331Z,100124.07
2018-05-11T11:29:47.907Z,100121.05
2018-05-11T11:32:15.464Z,100109.00
2018-05-11T11:34:43.174Z,100110.11
2018-05-11T11:37:11.453Z,100109.92
2018-05-11T11:39:39.030Z,100096.93
2018-05-11T11:42:06.628Z,100100.06
2018-05-11T11:44:34.198Z,100095.98
2018-05-11T11:47:01.773Z,100099.08
2018-05-11T11:49:29.380Z,100089.96
2018-05-11T11:51:57.064Z,100079.88
2018-05-11T11:54:24.678Z,100081.78
2018-05-11T11:56:52.271Z,100076.16
2018-05-11T11:59:19.863Z,100072.08
2018-05-11T12:01:47.417Z,100074.72
2018-05-11T12:04:15.078Z,100081.91
2018-05-11T12:06:42.740Z,100069.83
2018-05-11T12:09:10.387Z,100076.86
2018-05-11T12:11:37.964Z,100071.95
2018-05-11T12:14:05.592Z,100070.72
2018-05-11T12:16:33.153Z,100067.83
2018-05-11T12:19:00.801Z,100057.67
2018-05-11T12:21:28.412Z,100060.00
2018-05-11T12:23:55.961Z,100064.38
2018-05-11T12:26:24.034Z,100069.20
2018-05-11T12:28:51.568Z,100059.64
2018-05-11T12:31:19.151Z,100059.76
2018-05-11T12:33:46.857Z,100063.20
2018-05-11T12:36:14.458Z,100055.33
2018-05-11T12:38:42.014Z,100050.94
2018-05-11T12:41:09.818Z,100052.86
2018-05-11T12:43:37.394Z,100051.95
2018-05-11T12:46:05.167Z,100050.22
2018-05-11T12:48:32.769Z,100041.92
2018-05-11T12:51:00.376Z,100049.72
2018-05-11T12:53:28.144Z,100006.85
2018-05-11T12:55:55.666Z,100048.15
2018-05-11T12:58:23.755Z,100041.14
2018-05-11T13:00:51.379Z,100040.48
2018-05-11T13:03:19.025Z,100020.69
2018-05-11T13:05:47.211Z,100032.11
2018-05-11T13:08:14.849Z,100030.69
2018-05-11T13:10:42.437Z,100027.19
2018-05-11T13:13:10.037Z,100021.88
2018-05-11T13:15:37.638Z,100025.93
2018-05-11T13:18:05.334Z,100023.19
2018-05-11T13:20:33.033Z,100020.66
2018-05-11T13:23:00.590Z,100013.80
2018-05-11T13:25:28.217Z,100012.67
2018-05-11T13:27:55.909Z,100008.34
2018-05-11T13:30:23.569Z,100005.56
2018-05-11T13:32:51.124Z,99996.17
2018-05-11T13:35:18.698Z,99999.70
2018-05-11T13:37:46.271Z,99993.37
2018-05-11T13:40:13.890Z,99992.58
2018-05-11T13:42:41.520Z,99992.28
2018-05-11T13:45:09.269Z,99990.16
2018-05-11T13:47:37.248Z,99991.16
2018-05-11T13:50:04.898Z,99991.95
2018-05-11T13:52:32.572Z,100004.29
2018-05-11T13:55:00.223Z,99992.48
2018-05-11T13:57:28.037Z,99988.89
2018-05-11T13:59:55.649Z,99985.55
2018-05-11T14:02:23.345Z,99982.64
2018-05-11T14:04:51.311Z,99980.38
2018-05-11T14:07:19.062Z,99980.34
2018-05-11T14:09:46.727Z,99970.70
2018-05-11T14:12:14.579Z,99969.47
2018-05-11T14:14:42.291Z,99961.59
2018-05-11T14:17:10.102Z,99969.91
2018-05-11T14:19:37.891Z,99970.56
2018-05-11T14:22:05.645Z,99967.03
2018-05-11T14:24:33.305Z,99960.80
2018-05-11T14:27:00.933Z,99988.38
2018-05-11T14:29:28.570Z,99962.63
2018-05-11T14:31:56.199Z,99961.98
2018-05-11T14:34:23.734Z,99956.53
2018-05-11T14:36:51.334Z,99955.69
2018-05-11T14:39:18.880Z,99956.75
2018-05-11T14:41:46.475Z,99955.78
2018-05-11T14:44:14.039Z,99953.42
2018-05-11T14:46:41.693Z,99938.39
2018-05-11T14:49:09.216Z,99945.97
2018-05-11T14:51:36.802Z,99946.72
2018-05-11T14:54:04.371Z,99935.84
2018-05-11T14:56:31.937Z,99927.17
2018-05-11T14:58:59.727Z,99935.27
2018-05-11T15:01:27.278Z,99930.18
2018-05-11T15:03:54.879Z,99936.12
2018-05-11T15:06:22.485Z,99929.88
2018-05-11T15:08:50.073Z,99932.11
2018-05-11T15:11:17.645Z,99935.02
2018-05-11T15:13:45.273Z,99927.94
2018-05-11T15:16:12.837Z,99932.66
2018-05-11T15:18:44.588Z,99921.36
2018-05-11T15:21:12.140Z,99915.27
2018-05-11T15:23:39.743Z,99910.20
2018-05-11T15:26:07.390Z,99905.69
2018-05-11T15:28:35.043Z,99905.94
2018-05-11T15:31:02.614Z,99902.84
2018-05-11T15:33:30.218Z,99903.61
2018-05-11T15:35:57.835Z,99903.25
2018-05-11T15:38:25.412Z,99907.54
2018-05-11T15:40:53.071Z,99900.61
2018-05-11T15:43:20.799Z,99892.70
2018-05-11T15:45:48.339Z,99893.16
2018-05-11T15:48:15.981Z,99884.65
2018-05-11T15:50:43.517Z,99892.32
2018-05-11T15:53:11.115Z,99893.34
2018-05-11T15:55:38.736Z,99890.42
2018-05-11T15:58:06.353Z,99890.20
2018-05-11T16:00:33.919Z,99875.50
2018-05-11T16:03:01.504Z,99891.95
2018-05-11T16:05:30.412Z,99886.47
2018-05-11T16:07:58.035Z,99889.16
2018-05-11T16:10:25.579Z,99885.13
2018-05-11T16:12:53.288Z,99886.39
2018-05-11T16:15:21.063Z,99882.27
2018-05-11T16:17:48.726Z,99885.40
2018-05-11T16:20:16.370Z,99885.23
2018-05-11T16:22:44.053Z,99879.35
2018-05-11T16:25:14.428Z,99856.86
2018-05-11T16:27:42.068Z,99877.38
2018-05-11T16:30:09.652Z,99870.50
2018-05-11T16:32:37.369Z,99869.07
2018-05-11T16:35:05.931Z,99871.53
2018-05-11T16:37:33.685Z,99865.67
2018-05-11T16:40:01.324Z,99868.64
2018-05-11T16:42:28.995Z,99864.96
2018-05-11T16:44:56.813Z,99863.91
2018-05-11T16:47:24.365Z,99864.95
2018-05-11T16:49:51.968Z,99860.59
2018-05-11T16:52:19.553Z,99861.63
2018-05-11T16:54:47.183Z,99867.48
2018-05-11T16:57:14.727Z,99861.88
2018-05-11T16:59:42.329Z,99857.09
2018-05-11T17:02:09.956Z,99859.59
2018-05-11T17:04:37.550Z,99860.84
2018-05-11T17:07:06.063Z,99860.73
2018-05-11T17:09:33.646Z,99863.70
2018-05-11T17:12:01.232Z,99861.80
2018-05-11T17:14:28.846Z,99855.24
2018-05-11T17:16:56.404Z,99859.14
2018-05-11T17:19:24.012Z,99860.87
2018-05-11T17:21:51.610Z,99855.53
2018-05-11T17:24:19.196Z,99858.28
2018-05-11T17:26:46.797Z,99854.23
2018-05-11T17:29:14.388Z,99850.84
2018-05-11T17:31:41.964Z,99852.85
2018-05-11T17:34:09.592Z,99847.04
2018-05-11T17:36:37.194Z,99845.61
2018-05-11T17:39:04.850Z,99852.53
2018-05-11T17:41:32.543Z,99849.52
2018-05-11T17:44:00.037Z,99853.85
2018-05-11T17:46:27.586Z,99855.09
2018-05-11T17:48:55.160Z,99848.86
2018-05-11T17:51:22.683Z,99858.41
2018-05-11T17:53:50.241Z,99857.77
2018-05-11T17:56:17.859Z,99858.73
2018-05-11T17:58:45.459Z,99861.64
2018-05-11T18:01:13.064Z,99858.59
2018-05-11T18:03:40.639Z,99868.86
2018-05-11T18:06:08.229Z,99869.63
2018-05-11T18:08:35.789Z,99874.61
2018-05-11T18:11:03.367Z,99871.53
2018-05-11T18:13:30.940Z,99869.09
2018-05-11T18:15:58.569Z,99865.16
2018-05-11T18:18:26.152Z,99860.48
2018-05-11T18:20:53.730Z,99864.03
2018-05-11T18:23:21.275Z,99859.64
2018-05-11T18:25:48.843Z,99861.00
2018-05-11T18:28:16.390Z,99853.52
2018-05-11T18:30:43.964Z,99857.28
2018-05-11T18:33:11.686Z,99853.69
2018-05-11T18:35:39.345Z,99848.33
2018-05-11T18:38:06.908Z,99850.34
2018-05-11T18:40:34.516Z,99847.47
2018-05-11T18:43:02.116Z,99847.55
2018-05-11T18:45:29.696Z,99849.77
2018-05-11T18:47:57.300Z,99848.07
2018-05-11T18:50:24.907Z,99850.98
2018-05-11T18:52:52.764Z,99848.50
2018-05-11T18:55:20.369Z,99845.34
2018-05-11T18:57:48.462Z,99844.52
2018-05-11T19:00:16.039Z,99849.13
2018-05-11T19:02:43.613Z,99857.81
2018-05-11T19:05:11.208Z,99847.64
2018-05-11T19:07:38.870Z,99848.76
2018-05-11T19:10:06.617Z,99853.16
2018-05-11T19:12:34.213Z,99854.31
2018-05-11T19:15:01.797Z,99856.30
2018-05-11T19:17:29.430Z,99856.80
2018-05-11T19:19:57.045Z,99865.11
2018-05-11T19:22:24.654Z,99851.00
2018-05-11T19:24:52.279Z,99854.34
2018-05-11T19:27:19.914Z,99861.67
2018-05-11T19:29:47.474Z,99863.30
2018-05-11T19:32:15.089Z,99869.45
2018-05-11T19:34:42.716Z,99863.84
2018-05-11T19:37:10.277Z,99872.89
2018-05-11T19:39:38.889Z,99879.63
2018-05-11T19:42:06.464Z,99887.11
2018-05-11T19:44:34.094Z,99885.13
2018-05-11T19:47:01.646Z,99886.52
2018-05-11T19:49:29.283Z,99890.69
2018-05-11T19:51:56.897Z,99893.89
2018-05-11T19:54:24.449Z,99892.69
2018-05-11T19:56:52.012Z,99895.50
2018-05-11T19:59:21.410Z,99895.11
2018-05-11T20:01:48.955Z,99899.67
2018-05-11T20:04:16.561Z,99900.61
2018-05-11T20:06:44.103Z,99904.50
2018-05-11T20:09:11.643Z,99907.07
2018-05-11T20:11:39.306Z,99908.80
2018-05-11T20:14:06.858Z,99903.08
2018-05-11T20:16:34.457Z,99908.40
2018-05-11T20:19:02.023Z,99905.26
2018-05-11T20:21:29.646Z,99905.77
2018-05-11T20:23:57.234Z,99897.05
2018-05-11T20:26:24.793Z,99900.40
2018-05-11T20:28:52.404Z,99901.81
2018-05-11T20:31:19.993Z,99904.53
2018-05-11T20:33:48.390Z,99907.28
2018-05-11T20:36:15.924Z,99906.44
2018-05-11T20:38:43.485Z,99903.72
2018-05-11T20:41:11.067Z,99908.13
2018-05-11T20:43:38.615Z,99909.58
2018-05-11T20:46:06.213Z,99910.42
2018-05-11T20:48:33.752Z,99910.60
2018-05-11T20:51:01.325Z,99907.95
2018-05-11T20:53:28.904Z,99905.20
2018-05-11T20:55:56.506Z,99901.87
2018-05-11T20:58:24.075Z,99901.93
2018-05-11T21:00:51.620Z,99903.33
2018-05-11T21:03:19.221Z,99902.87
2018-05-11T21:05:46.832Z,99904.38
2018-05-11T21:08:14.410Z,99908.84
2018-05-11T21:10:41.961Z,99900.02
2018-05-11T21:13:09.553Z,99906.28
2018-05-11T21:15:37.254Z,99906.39
2018-05-11T21:18:04.864Z,99899.05
2018-05-11T21:20:32.412Z,99902.25
2018-05-11T21:22:59.980Z,99898.45
2018-05-11T21:25:27.554Z,99896.20
2018-05-11T21:27:55.112Z,99897.56
2018-05-11T21:30:22.639Z,99893.39
2018-05-11T21:32:50.267Z,99886.50
2018-05-11T21:35:17.853Z,99884.89
2018-05-11T21:37:45.464Z,99895.55
2018-05-11T21:40:12.999Z,99897.19
2018-05-11T21:42:40.540Z,99899.82
2018-05-11T21:45:08.117Z,99897.19
2018-05-11T21:47:35.733Z,99906.00
2018-05-11T21:50:03.320Z,99902.11
2018-05-11T21:52:32.023Z,99907.39
2018-05-11T21:54:59.585Z,99905.58
2018-05-11T21:57:27.124Z,99906.09
2018-05-11T21:59:54.686Z,99903.47
2018-05-11T22:02:22.247Z,99902.25
2018-05-11T22:04:49.859Z,99903.64
2018-05-11T22:07:17.397Z,99894.87
2018-05-11T22:09:44.947Z,99898.58
2018-05-11T22:12:12.536Z,99892.98
2018-05-11T22:14:40.085Z,99898.80
2018-05-11T22:17:07.636Z,99900.67
2018-05-11T22:19:35.177Z,99897.64
2018-05-11T22:22:02.749Z,99892.50
2018-05-11T22:24:30.323Z,99893.89
2018-05-11T22:26:57.884Z,99895.89
2018-05-11T22:29:25.432Z,99892.05
2018-05-11T22:31:53.065Z,99900.48
2018-05-11T22:34:20.597Z,99905.06
2018-05-11T22:36:48.193Z,99904.32
2018-05-11T22:39:15.744Z,99901.30
2018-05-11T22:41:43.309Z,99899.58
2018-05-11T22:44:10.834Z,99900.48
2018-05-11T22:46:38.386Z,99904.86
2018-05-11T22:49:05.947Z,99897.77
2018-05-11T22:51:33.560Z,99903.92
2018-05-11T22:54:01.110Z,99902.58
2018-05-11T22:56:28.635Z,99893.28
2018-05-11T22:58:56.992Z,99895.00
2018-05-11T23:01:24.574Z,99891.93
2018-05-11T23:03:52.126Z,99890.16
2018-05-11T23:06:19.660Z,99891.88
2018-05-11T23:08:47.249Z,99896.17
2018-05-11T23:11:14.842Z,99894.36
2018-05-11T23:13:42.459Z,99898.73
2018-05-11T23:16:10.036Z,99895.52
2018-05-11T23:18:37.594Z,99897.78
2018-05-11T23:21:05.174Z,99897.27
2018-05-11T23:23:32.770Z,99888.47
2018-05-11T23:26:00.240Z,99893.23
2018-05-11T23:28:27.794Z,99895.58
2018-05-11T23:30:55.325Z,99888.97
2018-05-11T23:33:24.406Z,99894.78
2018-05-11T23:35:52.022Z,99896.11
2018-05-11T23:38:19.581Z,99897.98
2018-05-11T23:40:47.165Z,99896.25
2018-05-11T23:43:14.724Z,99891.39
2018-05-11T23:45:42.279Z,99884.88
2018-05-11T23:48:09.850Z,99884.50
2018-05-11T23:50:37.387Z,99885.54
2018-05-11T23:53:04.928Z,99878.51
2018-05-11T23:55:32.469Z,99882.20
2018-05-11T23:58:00.044Z,99888.39
